Scopus, Missouri
Current Conditions -  °F | °C
As of 4:53 PM on Thursday 23 Oct 2014 (Local Time) from KCGI Reporting Station
Clear Clear  
Wind Chill: 57°   Ceiling: Unl
Heat Index: 57°   Visibility: 10mi
Dew Point: 45°   Wind: 3mph
Humidity: 64%   Direction: 260°W
Pressure: 30.14"   Gusts: NA
Location:  37.2968°N, 89.9579°W
Report Text: KCGI 232153Z AUTO 26003KT 10SM CLR 14/07 A3014 RMK AO2 SLP206 T01390072 TSNO
Loading
Personal Weather Stations






























Interactive Weather Map
Tropical Storm Tracking
New forecast layout! Learn more

10-Day Weather Forecast

Advertisements
Track Severe Weather on mobile